Time;durP1;ratioP1;P1;durP2;ratioP2;P2;SDS_P1;SDS_P2;PMS_P1;PMS_P2;Temp;Humidity;BMP_temperature;BMP_pressure;BME280_temperature;BME280_humidity;BME280_pressure;Samples;Min_cycle;Max_cycle;Signal;HPM_P1;HPM_P2
2022/12/21 00:01:39;;;;;;;96.05;46.95;;;51.30;2227.20;;;;;;5089043;28;20497;-58
2022/12/21 00:04:05;;;;;;;104.57;56.50;;;51.30;2227.20;;;;;;5088996;28;20036;-58
2022/12/21 00:06:33;;;;;;;98.25;51.50;;;51.30;2227.20;;;;;;5086359;28;20107;-58
2022/12/21 00:09:00;;;;;;;85.93;45.30;;;51.40;2227.20;;;;;;5088726;28;20036;-59
2022/12/21 00:11:27;;;;;;;72.57;38.30;;;51.50;2227.20;;;;;;5088795;28;20138;-57
2022/12/21 00:13:55;;;;;;;40.60;24.33;;;51.50;2227.20;;;;;;5087897;28;20026;-60
2022/12/21 00:16:24;;;;;;;43.58;26.48;;;51.50;2227.20;;;;;;5088657;28;20020;-58
2022/12/21 00:18:50;;;;;;;46.67;28.45;;;51.50;2227.20;;;;;;5088452;28;20474;-61
2022/12/21 00:21:19;;;;;;;68.43;44.97;;;51.40;2227.20;;;;;;5088845;28;20052;-59
2022/12/21 00:23:46;;;;;;;73.72;48.50;;;51.40;2227.20;;;;;;5088689;28;20063;-58
2022/12/21 00:26:13;;;;;;;32.33;18.20;;;51.30;2227.20;;;;;;5085976;28;20016;-59
2022/12/21 00:28:39;;;;;;;25.00;13.90;;;51.30;2227.20;;;;;;5088628;28;20103;-60
2022/12/21 00:31:15;;;;;;;26.20;17.23;;;26.50;2201.60;;;;;;5088835;28;20024;-63
2022/12/21 00:33:41;;;;;;;25.48;14.85;;;51.30;2227.20;;;;;;5088490;28;20073;-62
2022/12/21 00:36:09;;;;;;;27.50;17.08;;;51.40;2227.20;;;;;;5088494;28;20028;-61
2022/12/21 00:38:35;;;;;;;31.42;17.92;;;51.40;2227.20;;;;;;5088912;28;20019;-59
2022/12/21 00:41:04;;;;;;;30.80;17.52;;;51.50;2227.20;;;;;;5088379;28;20408;-62
2022/12/21 00:43:33;;;;;;;31.20;18.90;;;51.50;2227.20;;;;;;5088139;28;20047;-63
2022/12/21 00:45:59;;;;;;;37.17;20.40;;;51.60;2227.20;;;;;;5088600;28;20024;-62
2022/12/21 00:48:26;;;;;;;45.25;24.27;;;51.60;2227.20;;;;;;5088559;28;20028;-61
2022/12/21 00:50:52;;;;;;;48.03;26.77;;;51.60;2227.20;;;;;;5085872;28;20020;-62
2022/12/21 00:53:18;;;;;;;58.05;32.90;;;51.60;2227.20;;;;;;5088297;28;20073;-59
2022/12/21 00:55:55;;;;;;;51.58;29.83;;;51.70;2227.20;;;;;;5088431;28;20032;-61
2022/12/21 00:58:23;;;;;;;53.75;32.03;;;51.70;2227.20;;;;;;5087189;28;20030;-60
2022/12/21 01:00:51;;;;;;;47.55;28.88;;;51.60;2227.20;;;;;;5088364;28;20374;-61
2022/12/21 01:03:16;;;;;;;35.20;19.95;;;51.70;2227.20;;;;;;5087947;28;20107;-60
2022/12/21 01:05:49;;;;;;;26.92;16.48;;;51.70;2227.20;;;;;;5088308;28;20146;-62
2022/12/21 01:08:16;;;;;;;35.50;21.03;;;51.70;2227.20;;;;;;5085872;28;20529;-58
2022/12/21 01:10:42;;;;;;;39.10;24.45;;;51.80;2227.20;;;;;;5088714;28;20269;-60
2022/12/21 01:13:08;;;;;;;46.35;27.58;;;51.80;2227.20;;;;;;5088845;28;20048;-58
2022/12/21 01:15:34;;;;;;;50.05;29.45;;;51.70;2227.20;;;;;;5088929;28;20024;-58
2022/12/21 01:17:59;;;;;;;49.65;30.88;;;51.80;2227.20;;;;;;5088603;28;20024;-62
2022/12/21 01:20:25;;;;;;;59.55;34.47;;;51.80;2227.20;;;;;;5088688;28;20060;-58
2022/12/21 01:22:51;;;;;;;48.53;29.70;;;51.70;2227.20;;;;;;5088415;28;20026;-58
2022/12/21 01:25:16;;;;;;;45.55;25.50;;;51.70;2227.20;;;;;;5090185;28;20110;-59
2022/12/21 01:27:42;;;;;;;42.28;22.95;;;51.70;2227.20;;;;;;5092585;28;20472;-61
2022/12/21 01:30:08;;;;;;;57.53;33.25;;;51.80;2227.20;;;;;;5092191;28;20089;-59
2022/12/21 01:32:34;;;;;;;44.17;25.40;;;51.70;2227.20;;;;;;5092543;28;20043;-62
2022/12/21 01:35:00;;;;;;;71.60;41.15;;;51.80;2227.20;;;;;;5092057;28;20064;-58
2022/12/21 01:37:26;;;;;;;78.95;46.25;;;51.90;2227.20;;;;;;5092229;28;20074;-58
2022/12/21 01:39:52;;;;;;;74.10;42.38;;;51.90;2227.20;;;;;;5092025;28;20032;-58
2022/12/21 01:42:17;;;;;;;67.75;39.45;;;51.90;2227.20;;;;;;5091866;28;20067;-59
2022/12/21 01:45:13;;;;;;;70.43;40.15;;;51.90;2227.20;;;;;;5092385;28;20395;-59
2022/12/21 01:47:48;;;;;;;102.45;57.28;;;52.00;2227.20;;;;;;5092141;28;20042;-58
2022/12/21 01:50:57;;;;;;;106.53;59.92;;;52.10;2227.20;;;;;;5091958;28;20070;-58
2022/12/21 01:53:37;;;;;;;87.93;52.72;;;52.10;2227.20;;;;;;5032072;28;20033;-70
2022/12/21 01:56:07;;;;;;;71.93;40.17;;;52.10;2227.20;;;;;;5035126;28;20080;-59
2022/12/21 01:58:35;;;;;;;63.28;34.83;;;52.10;2227.20;;;;;;5034880;28;20029;-61
2022/12/21 02:01:02;;;;;;;48.88;29.17;;;52.00;2227.20;;;;;;5034478;28;20029;-60
2022/12/21 02:03:37;;;;;;;45.78;24.55;;;52.10;2227.20;;;;;;5034487;28;20104;-60
2022/12/21 02:06:10;;;;;;;44.25;25.92;;;52.10;2227.20;;;;;;5033665;28;20029;-60
2022/12/21 02:08:36;;;;;;;32.00;20.40;;;52.00;2227.20;;;;;;5029885;28;20120;-63
2022/12/21 02:11:03;;;;;;;41.55;24.80;;;52.10;2227.20;;;;;;5029538;28;20037;-59
2022/12/21 02:13:29;;;;;;;41.65;25.55;;;52.10;2227.20;;;;;;5030308;28;20042;-63
2022/12/21 02:15:54;;;;;;;30.52;18.60;;;76.80;2227.20;;;;;;5029539;28;20533;-60
2022/12/21 02:18:38;;;;;;;26.98;15.98;;;52.10;2227.20;;;;;;5028892;28;20037;-59
2022/12/21 02:21:27;;;;;;;28.77;14.80;;;52.10;2227.20;;;;;;5028762;28;20104;-57
2022/12/21 02:24:26;;;;;;;35.38;20.38;;;52.00;2227.20;;;;;;5055973;28;20117;-59
2022/12/21 02:27:00;;;;;;;30.60;18.63;;;51.90;2227.20;;;;;;5091523;28;20021;-61
2022/12/21 02:29:41;;;;;;;31.95;19.38;;;52.00;2227.20;;;;;;5091657;28;20287;-58
2022/12/21 02:32:29;;;;;;;31.85;18.60;;;52.00;2227.20;;;;;;5091305;28;20059;-62
2022/12/21 02:35:43;;;;;;;34.40;21.95;;;52.10;2227.20;;;;;;5091510;28;20052;-59
2022/12/21 02:38:26;;;;;;;30.55;19.80;;;51.90;2227.20;;;;;;5027867;28;20636;-60
2022/12/21 02:41:25;;;;;;;27.63;15.85;;;51.70;2227.20;;;;;;5028594;28;20069;-59
2022/12/21 02:44:12;;;;;;;24.50;15.27;;;51.70;2227.20;;;;;;5028522;28;20041;-58
2022/12/21 02:47:02;;;;;;;26.95;16.77;;;51.80;2227.20;;;;;;5028617;28;20112;-59
2022/12/21 02:50:12;;;;;;;30.73;16.33;;;51.70;2227.20;;;;;;5028393;28;20045;-61
2022/12/21 02:53:12;;;;;;;47.63;26.20;;;51.80;2227.20;;;;;;5028493;28;20055;-59
2022/12/21 02:55:37;;;;;;;25.98;15.25;;;51.80;2227.20;;;;;;5028319;28;20033;-59
2022/12/21 02:58:18;;;;;;;26.42;16.02;;;51.80;2227.20;;;;;;5028353;28;20035;-59
2022/12/21 03:00:52;;;;;;;31.00;17.20;;;51.80;2227.20;;;;;;5028188;28;20036;-62
2022/12/21 03:03:49;;;;;;;37.75;24.13;;;51.90;2227.20;;;;;;5028016;28;20037;-59
2022/12/21 03:06:23;;;;;;;48.42;30.58;;;52.00;2227.20;;;;;;5028050;28;20033;-59
2022/12/21 03:09:24;;;;;;;51.28;32.70;;;52.10;2227.20;;;;;;5027919;28;20045;-59
2022/12/21 03:12:23;;;;;;;54.85;31.55;;;52.10;2227.20;;;;;;5028011;28;20472;-59
2022/12/21 03:15:07;;;;;;;95.13;52.45;;;52.00;2227.20;;;;;;5065209;28;20036;-58
2022/12/21 03:17:36;;;;;;;101.18;58.13;;;52.00;2227.20;;;;;;5090593;28;20541;-59
2022/12/21 03:20:40;;;;;;;135.25;77.57;;;52.10;2227.20;;;;;;5090404;28;20028;-59
2022/12/21 03:23:31;;;;;;;124.43;69.25;;;52.10;2227.20;;;;;;5089683;28;20032;-59
2022/12/21 03:26:11;;;;;;;137.18;81.72;;;52.10;2227.20;;;;;;5090075;28;20903;-61
2022/12/21 03:28:41;;;;;;;134.20;76.88;;;52.10;2227.20;;;;;;5090108;28;20028;-60
2022/12/21 03:31:13;;;;;;;50.85;32.67;;;76.80;2227.20;;;;;;5090207;28;20028;-59
2022/12/21 03:33:46;;;;;;;46.80;26.83;;;52.10;2227.20;;;;;;5089023;28;20040;-58
2022/12/21 03:36:21;;;;;;;45.92;27.45;;;52.10;2227.20;;;;;;5089886;28;20012;-58
2022/12/21 03:39:01;;;;;;;40.65;24.35;;;76.80;2227.20;;;;;;5089652;28;20035;-58
2022/12/21 03:41:34;;;;;;;44.13;25.50;;;76.80;2227.20;;;;;;5089707;28;20052;-58
2022/12/21 03:44:03;;;;;;;34.80;20.45;;;76.90;2227.20;;;;;;5089520;28;20553;-58
2022/12/21 03:46:43;;;;;;;41.97;25.75;;;76.90;2227.20;;;;;;5089953;28;20031;-58
2022/12/21 03:49:17;;;;;;;101.25;55.53;;;76.90;2227.20;;;;;;5089441;28;20470;-60
2022/12/21 03:52:11;;;;;;;45.10;28.48;;;76.90;2227.20;;;;;;5089847;28;20494;-58
2022/12/21 03:54:49;;;;;;;94.05;49.92;;;76.90;2227.20;;;;;;5027165;28;20053;-59
2022/12/21 03:57:16;;;;;;;173.68;99.97;;;52.00;2227.20;;;;;;5027271;28;20021;-61
2022/12/21 03:59:47;;;;;;;146.98;78.32;;;52.00;2227.20;;;;;;5027539;28;20034;-58
2022/12/21 04:02:24;;;;;;;132.18;75.75;;;52.10;2227.20;;;;;;5027450;28;20025;-58
2022/12/21 04:04:57;;;;;;;123.82;74.00;;;76.80;2227.20;;;;;;5026690;28;20129;-59
2022/12/21 04:07:25;;;;;;;119.40;64.97;;;52.10;2227.20;;;;;;5027182;28;20025;-58
2022/12/21 04:09:59;;;;;;;169.45;94.97;;;52.00;2227.20;;;;;;5026977;28;20045;-58
2022/12/21 04:12:38;;;;;;;160.30;90.88;;;52.10;2227.20;;;;;;5027203;28;20037;-60
2022/12/21 04:15:06;;;;;;;153.70;87.43;;;76.90;2227.20;;;;;;5027082;28;20029;-58
2022/12/21 04:17:32;;;;;;;142.77;79.80;;;52.00;2227.20;;;;;;5027004;28;20021;-58
2022/12/21 04:19:59;;;;;;;133.38;71.20;;;52.00;2227.20;;;;;;5026843;28;20033;-60
2022/12/21 04:28:07;;;;;;;129.90;74.88;;;51.90;2227.20;;;;;;5027248;28;20037;-58
2022/12/21 04:30:34;;;;;;;89.43;53.83;;;51.90;2227.20;;;;;;5036836;28;20036;-61
2022/12/21 04:32:59;;;;;;;64.20;35.78;;;51.90;2227.20;;;;;;5089051;28;20028;-59
2022/12/21 04:35:25;;;;;;;48.85;29.27;;;51.90;2227.20;;;;;;5089368;28;20462;-59
2022/12/21 04:37:51;;;;;;;45.53;26.10;;;51.90;2227.20;;;;;;5088722;28;20024;-58
2022/12/21 04:40:16;;;;;;;48.78;26.05;;;51.90;2227.20;;;;;;5088707;28;20028;-58
2022/12/21 04:42:42;;;;;;;54.17;29.70;;;51.90;2227.20;;;;;;5088978;28;20034;-61
2022/12/21 04:45:08;;;;;;;52.20;29.13;;;51.90;2227.20;;;;;;5089149;28;20046;-58
2022/12/21 04:47:34;;;;;;;60.88;34.38;;;51.90;2227.20;;;;;;5089046;28;20027;-62
2022/12/21 04:49:59;;;;;;;55.42;32.58;;;51.80;2227.20;;;;;;5088604;28;20031;-59
2022/12/21 04:52:25;;;;;;;55.47;34.60;;;51.80;2227.20;;;;;;5089053;28;20042;-62
2022/12/21 04:54:51;;;;;;;60.22;29.20;;;51.70;2227.20;;;;;;5088909;28;20512;-61
2022/12/21 04:57:17;;;;;;;48.20;28.90;;;51.80;2227.20;;;;;;5088841;28;20466;-58
2022/12/21 04:59:44;;;;;;;58.42;31.45;;;51.70;2227.20;;;;;;5089693;28;20028;-61
2022/12/21 05:02:10;;;;;;;59.25;36.10;;;51.70;2227.20;;;;;;5092895;28;20028;-60
2022/12/21 05:04:36;;;;;;;85.30;49.75;;;51.70;2227.20;;;;;;5092650;28;20048;-60
2022/12/21 05:07:02;;;;;;;53.28;31.55;;;51.60;2227.20;;;;;;5093402;28;20028;-61
2022/12/21 05:09:28;;;;;;;54.67;29.30;;;51.50;2227.20;;;;;;5093103;28;20136;-60
2022/12/21 05:11:54;;;;;;;48.75;30.48;;;51.50;2227.20;;;;;;5093845;28;20031;-59
2022/12/21 05:14:21;;;;;;;49.67;29.63;;;51.30;2227.20;;;;;;5092512;28;20050;-59
2022/12/21 05:16:47;;;;;;;52.55;30.17;;;51.40;2227.20;;;;;;5092698;28;20028;-59
2022/12/21 05:19:14;;;;;;;46.03;27.80;;;51.40;2227.20;;;;;;5092867;28;20555;-59
2022/12/21 05:21:40;;;;;;;50.05;29.80;;;51.50;2227.20;;;;;;5092657;28;20125;-59
2022/12/21 05:24:06;;;;;;;43.50;25.98;;;51.50;2227.20;;;;;;5092696;28;20040;-59
2022/12/21 05:26:31;;;;;;;41.30;26.58;;;51.50;2227.20;;;;;;5092494;28;20081;-59
2022/12/21 05:28:57;;;;;;;40.83;24.98;;;51.60;2227.20;;;;;;5092403;28;20035;-59
2022/12/21 05:31:23;;;;;;;52.13;35.55;;;51.70;2227.20;;;;;;5092645;28;20446;-61
2022/12/21 05:33:49;;;;;;;61.50;37.30;;;51.70;2227.20;;;;;;5092275;28;20032;-60
2022/12/21 05:36:16;;;;;;;59.08;35.88;;;51.70;2227.20;;;;;;5092243;28;20028;-62
2022/12/21 05:38:43;;;;;;;39.40;22.92;;;51.60;2227.20;;;;;;5092285;28;20036;-61
2022/12/21 05:41:11;;;;;;;26.90;16.10;;;51.60;2227.20;;;;;;5092072;28;20394;-62
2022/12/21 05:43:36;;;;;;;26.60;15.13;;;51.50;2227.20;;;;;;5092057;28;20444;-60
2022/12/21 05:46:08;;;;;;;26.92;17.33;;;51.50;2227.20;;;;;;5091644;28;20024;-59
2022/12/21 05:48:34;;;;;;;29.88;14.57;;;51.50;2227.20;;;;;;5089263;28;20469;-60
2022/12/21 05:51:07;;;;;;;39.47;24.13;;;51.50;2227.20;;;;;;5091352;28;20089;-59
2022/12/21 05:53:32;;;;;;;26.88;16.25;;;51.60;2227.20;;;;;;5087913;28;20066;-57
2022/12/21 05:55:58;;;;;;;29.40;15.40;;;51.50;2227.20;;;;;;5091365;28;20024;-62
2022/12/21 05:58:23;;;;;;;40.40;31.35;;;51.50;2227.20;;;;;;5091425;28;20044;-61
2022/12/21 06:00:50;;;;;;;41.65;29.55;;;51.50;2227.20;;;;;;5091086;28;20425;-59
2022/12/21 06:03:15;;;;;;;46.67;26.60;;;51.60;2227.20;;;;;;5092746;28;20394;-62
2022/12/21 06:05:41;;;;;;;49.85;27.35;;;51.60;2227.20;;;;;;5093143;28;20039;-60
2022/12/21 06:08:07;;;;;;;45.45;27.10;;;51.50;2227.20;;;;;;5096642;28;20043;-60
2022/12/21 06:10:36;;;;;;;53.70;28.52;;;51.50;2227.20;;;;;;5097569;28;20024;-66
2022/12/21 06:13:02;;;;;;;47.85;28.50;;;51.50;2227.20;;;;;;5096623;28;20024;-66
2022/12/21 06:15:28;;;;;;;84.93;41.92;;;51.60;2227.20;;;;;;5096634;28;20042;-59
2022/12/21 06:17:53;;;;;;;89.32;47.38;;;51.60;2227.20;;;;;;5096828;28;20032;-59
2022/12/21 06:20:19;;;;;;;77.70;42.65;;;51.60;2227.20;;;;;;5094771;28;20039;-60
2022/12/21 06:22:46;;;;;;;58.65;33.42;;;51.60;2227.20;;;;;;5091600;28;20413;-59
2022/12/21 06:25:12;;;;;;;62.00;32.17;;;51.70;2227.20;;;;;;5088789;28;20086;-63
2022/12/21 06:27:38;;;;;;;66.25;36.40;;;51.70;2227.20;;;;;;5091418;28;20487;-62
2022/12/21 06:30:04;;;;;;;71.55;42.75;;;51.70;2227.20;;;;;;5091083;28;20032;-61
2022/12/21 06:32:30;;;;;;;77.45;41.65;;;51.70;2227.20;;;;;;5091966;28;20043;-59
2022/12/21 06:34:55;;;;;;;55.97;28.63;;;51.70;2227.20;;;;;;5091965;28;20469;-62
2022/12/21 06:37:21;;;;;;;46.00;28.73;;;51.70;2227.20;;;;;;5092066;28;20024;-59
2022/12/21 06:39:47;;;;;;;85.88;47.92;;;51.70;2227.20;;;;;;5091745;28;20390;-60
2022/12/21 06:42:12;;;;;;;87.07;50.75;;;51.80;2227.20;;;;;;5091923;28;20071;-60
2022/12/21 06:44:38;;;;;;;64.78;34.63;;;51.80;2227.20;;;;;;5091791;28;20059;-59
2022/12/21 06:47:04;;;;;;;40.00;23.58;;;51.80;2227.20;;;;;;5091950;28;20488;-61
2022/12/21 06:49:30;;;;;;;42.75;25.73;;;51.70;2227.20;;;;;;5091793;28;20503;-58
2022/12/21 06:51:56;;;;;;;65.93;36.95;;;51.90;2227.20;;;;;;5091710;28;20027;-62
2022/12/21 06:54:21;;;;;;;73.07;43.75;;;51.90;2227.20;;;;;;5091696;28;20473;-59
2022/12/21 06:56:47;;;;;;;56.15;35.88;;;51.80;2227.20;;;;;;5091492;28;20028;-59
2022/12/21 06:59:13;;;;;;;281.65;150.70;;;51.80;2227.20;;;;;;5091573;28;20490;-60
2022/12/21 07:01:38;;;;;;;396.33;215.35;;;51.70;2227.20;;;;;;5091487;28;20039;-59
2022/12/21 07:04:04;;;;;;;276.60;157.48;;;51.80;2227.20;;;;;;5091422;28;20036;-59
2022/12/21 07:06:31;;;;;;;320.10;205.45;;;51.80;2227.20;;;;;;5091230;28;20051;-59
2022/12/21 07:08:57;;;;;;;450.83;266.63;;;51.80;2227.20;;;;;;5090898;28;20032;-59
2022/12/21 07:11:26;;;;;;;286.17;159.40;;;51.90;2227.20;;;;;;5090137;28;20059;-59
2022/12/21 07:13:53;;;;;;;222.50;135.18;;;52.00;2227.20;;;;;;5091408;28;20020;-59
2022/12/21 07:16:20;;;;;;;207.18;122.25;;;52.00;2227.20;;;;;;5091076;28;20485;-60
2022/12/21 07:18:46;;;;;;;148.70;92.38;;;52.10;2227.20;;;;;;5091327;28;20024;-59
2022/12/21 07:21:14;;;;;;;154.93;97.13;;;52.10;2227.20;;;;;;5091310;28;20130;-59
2022/12/21 07:23:40;;;;;;;215.68;133.82;;;52.10;2227.20;;;;;;5090448;28;20043;-59
2022/12/21 07:26:08;;;;;;;250.43;154.85;;;76.90;2227.20;;;;;;5091351;28;20047;-59
2022/12/21 07:28:33;;;;;;;261.13;167.80;;;76.90;2227.20;;;;;;5091219;28;20020;-61
2022/12/21 07:31:10;;;;;;;276.60;169.05;;;77.00;2227.20;;;;;;5090966;28;20093;-60
2022/12/21 07:33:37;;;;;;;327.27;216.23;;;77.00;2227.20;;;;;;5091207;28;20064;-58
2022/12/21 07:36:04;;;;;;;303.77;197.38;;;77.10;2227.20;;;;;;5090973;28;20122;-62
2022/12/21 07:38:32;;;;;;;294.38;201.27;;;77.20;2227.20;;;;;;5090965;28;20508;-59
2022/12/21 07:40:59;;;;;;;293.20;192.05;;;77.20;2227.20;;;;;;5090564;28;20084;-60
2022/12/21 07:43:25;;;;;;;264.67;180.10;;;77.20;2227.20;;;;;;5090324;28;20088;-61
2022/12/21 07:45:51;;;;;;;187.77;125.55;;;77.20;2227.20;;;;;;5090552;28;20020;-59
2022/12/21 07:48:18;;;;;;;122.43;83.95;;;77.30;2227.20;;;;;;5090145;28;20032;-58
2022/12/21 07:50:46;;;;;;;135.02;92.50;;;77.30;2227.20;;;;;;5089993;28;20382;-61
2022/12/21 07:53:13;;;;;;;116.85;78.47;;;77.40;2227.20;;;;;;5087487;28;20032;-60
2022/12/21 07:55:38;;;;;;;129.70;87.30;;;77.40;2227.20;;;;;;5089755;28;20040;-58
2022/12/21 07:58:04;;;;;;;169.07;105.05;;;77.40;2227.20;;;;;;5090040;28;20016;-61
2022/12/21 08:00:30;;;;;;;128.48;85.55;;;77.40;2227.20;;;;;;5090288;28;20024;-60
2022/12/21 08:02:55;;;;;;;101.63;65.65;;;77.50;2227.20;;;;;;5090729;28;20482;-60
2022/12/21 08:05:21;;;;;;;81.07;55.88;;;77.70;2227.20;;;;;;5089576;28;20119;-60
2022/12/21 08:07:49;;;;;;;103.13;68.22;;;77.70;2227.20;;;;;;5089190;28;20036;-59
2022/12/21 08:10:16;;;;;;;500.98;343.15;;;102.50;2227.20;;;;;;5090120;28;20039;-60
2022/12/21 08:12:41;;;;;;;377.83;256.23;;;102.50;2227.20;;;;;;5090274;28;20077;-60
2022/12/21 08:15:07;;;;;;;367.02;241.77;;;102.40;2227.20;;;;;;5090427;28;20027;-59
2022/12/21 08:17:34;;;;;;;218.60;148.63;;;102.60;2227.20;;;;;;5089964;28;20473;-59
2022/12/21 08:19:59;;;;;;;234.07;151.95;;;102.80;2227.20;;;;;;5090072;28;20024;-59
2022/12/21 08:22:25;;;;;;;261.63;177.85;;;102.90;2227.20;;;;;;5090225;28;20024;-60
2022/12/21 08:24:51;;;;;;;178.10;126.82;;;128.30;2252.80;;;;;;5089558;28;20443;-68
2022/12/21 08:27:18;;;;;;;117.10;81.78;;;153.90;2252.80;;;;;;5088526;28;20390;-57
2022/12/21 08:29:43;;;;;;;91.43;59.97;;;153.90;2252.80;;;;;;5089975;28;20020;-68
2022/12/21 08:32:09;;;;;;;61.13;41.67;;;153.90;2252.80;;;;;;5090022;28;20028;-64
2022/12/21 08:34:35;;;;;;;91.00;52.13;;;154.00;2252.80;;;;;;5090817;28;20103;-62
2022/12/21 08:37:01;;;;;;;70.22;47.88;;;154.10;2252.80;;;;;;5094013;28;20028;-68
2022/12/21 08:39:27;;;;;;;97.20;59.60;;;154.20;2252.80;;;;;;5094244;28;20166;-57
2022/12/21 08:41:53;;;;;;;63.95;44.40;;;180.00;2252.80;;;;;;5092895;28;20044;-65
2022/12/21 08:44:18;;;;;;;74.70;52.97;;;231.10;2252.80;;;;;;5093675;28;20031;-67
2022/12/21 08:46:44;;;;;;;117.00;87.93;;;282.00;2278.40;;;;;;5094235;28;20024;-70
2022/12/21 08:49:10;;;;;;;503.15;416.95;;;307.90;2201.60;;;;;;5094142;28;20107;-71
2022/12/21 08:51:40;;;;;;;522.35;449.48;;;307.60;2150.40;;;;;;5094189;28;20024;-64
2022/12/21 08:54:07;;;;;;;538.78;465.15;;;307.90;2124.80;;;;;;5094054;28;20081;-64
2022/12/21 08:56:34;;;;;;;549.47;484.58;;;332.80;2099.20;;;;;;5094091;28;20470;-61
2022/12/21 08:59:04;;;;;;;544.05;473.92;;;333.20;2073.60;;;;;;5092629;28;20032;-60
2022/12/21 09:01:30;;;;;;;500.88;431.25;;;333.40;2022.40;;;;;;5090792;28;20062;-61
2022/12/21 09:03:56;;;;;;;574.58;488.42;;;333.60;1996.80;;;;;;5093818;28;20458;-58
2022/12/21 09:06:22;;;;;;;671.80;554.90;;;333.20;2022.40;;;;;;5093633;28;20032;-60
2022/12/21 09:08:48;;;;;;;552.65;472.58;;;333.00;2022.40;;;;;;5093412;28;20058;-69
2022/12/21 09:11:16;;;;;;;462.45;390.92;;;308.10;2048.00;;;;;;5093505;28;20028;-61
2022/12/21 09:13:43;;;;;;;461.10;381.92;;;308.10;2048.00;;;;;;5093556;28;20538;-66
2022/12/21 09:16:21;;;;;;;400.38;311.50;;;308.00;2048.00;;;;;;5093517;28;20485;-58
2022/12/21 09:18:47;;;;;;;432.98;325.25;;;358.70;1971.20;;;;;;5093345;28;20028;-59
2022/12/21 09:21:15;;;;;;;314.70;246.70;;;358.40;1920.00;;;;;;5093701;28;20050;-61
2022/12/21 09:23:41;;;;;;;320.08;244.45;;;308.00;2022.40;;;;;;5092862;28;20497;-65
2022/12/21 09:26:08;;;;;;;327.95;244.82;;;307.20;2099.20;;;;;;5093165;28;20024;-59
2022/12/21 09:28:34;;;;;;;304.48;221.93;;;281.60;2176.00;;;;;;5093716;28;20356;-65
2022/12/21 09:31:18;;;;;;;297.42;213.98;;;256.20;2252.80;;;;;;5093261;28;20020;-69
2022/12/21 09:33:44;;;;;;;312.35;220.95;;;231.00;2252.80;;;;;;5093106;28;20474;-64
2022/12/21 09:36:11;;;;;;;303.73;218.75;;;230.70;2252.80;;;;;;5092709;28;20024;-69
2022/12/21 09:38:37;;;;;;;287.95;202.90;;;205.70;2252.80;;;;;;5092200;28;20501;-63
2022/12/21 09:41:22;;;;;;;316.30;220.45;;;205.40;2252.80;;;;;;5092612;28;20044;-67
2022/12/21 09:44:12;;;;;;;304.88;213.10;;;205.10;2252.80;;;;;;5091794;28;20214;-67
2022/12/21 09:46:41;;;;;;;290.23;206.27;;;205.00;2252.80;;;;;;5092494;28;20028;-59
2022/12/21 09:49:20;;;;;;;303.90;206.65;;;204.80;2252.80;;;;;;5092815;28;20022;-66
2022/12/21 09:51:57;;;;;;;325.35;218.27;;;205.10;2252.80;;;;;;5091419;28;20024;-59
2022/12/21 09:54:54;;;;;;;279.25;187.20;;;205.10;2252.80;;;;;;5090550;28;20111;-60
2022/12/21 09:57:21;;;;;;;248.43;164.07;;;205.20;2252.80;;;;;;5009885;28;20127;-56
2022/12/21 09:59:46;;;;;;;243.85;173.10;;;205.40;2252.80;;;;;;5009866;28;20041;-58
2022/12/21 10:02:18;;;;;;;209.57;150.63;;;205.60;2252.80;;;;;;5009739;28;20496;-58
2022/12/21 10:05:14;;;;;;;202.50;141.85;;;205.30;2252.80;;;;;;5009445;28;20167;-57
2022/12/21 10:08:07;;;;;;;95.78;63.83;;;205.30;2252.80;;;;;;5006174;28;20467;-68
2022/12/21 10:10:42;;;;;;;180.32;116.07;;;205.30;2252.80;;;;;;5008039;28;20036;-69
2022/12/21 10:13:35;;;;;;;218.00;141.63;;;205.30;2252.80;;;;;;5009403;28;20037;-63
2022/12/21 10:16:29;;;;;;;334.10;221.77;;;205.20;2252.80;;;;;;5010324;28;20040;-61
2022/12/21 10:19:06;;;;;;;352.42;230.68;;;205.10;2252.80;;;;;;5009769;28;20073;-63
2022/12/21 10:21:36;;;;;;;304.65;212.35;;;205.00;2252.80;;;;;;5009452;28;20034;-62
2022/12/21 10:24:05;;;;;;;271.52;186.20;;;205.10;2252.80;;;;;;4990532;28;20072;-65
2022/12/21 10:26:35;;;;;;;274.88;178.55;;;205.10;2252.80;;;;;;5009931;28;20034;-60
2022/12/21 10:29:15;;;;;;;290.30;192.85;;;205.20;2252.80;;;;;;5010042;28;20115;-60
2022/12/21 10:31:44;;;;;;;301.58;207.52;;;205.20;2252.80;;;;;;5009742;28;20440;-65
2022/12/21 10:34:33;;;;;;;254.13;169.23;;;205.30;2252.80;;;;;;5054988;28;20131;-57
2022/12/21 10:37:02;;;;;;;242.48;156.95;;;205.40;2252.80;;;;;;5091349;28;20035;-58
2022/12/21 10:39:30;;;;;;;175.93;124.53;;;205.40;2252.80;;;;;;5090601;28;20032;-58
2022/12/21 10:42:28;;;;;;;175.35;119.28;;;205.50;2252.80;;;;;;5091337;28;20075;-60
2022/12/21 10:44:54;;;;;;;135.68;91.78;;;205.60;2252.80;;;;;;5087438;28;20048;-57
2022/12/21 10:47:22;;;;;;;94.25;61.88;;;205.50;2252.80;;;;;;5090843;28;20038;-62
2022/12/21 10:50:13;;;;;;;122.65;83.63;;;205.60;2252.80;;;;;;5090633;28;20031;-57
2022/12/21 10:52:43;;;;;;;115.88;84.85;;;205.60;2252.80;;;;;;5079833;28;20044;-57
2022/12/21 10:55:17;;;;;;;179.32;119.22;;;205.70;2252.80;;;;;;5091234;28;20451;-58
2022/12/21 10:57:45;;;;;;;168.95;112.25;;;205.70;2252.80;;;;;;5090426;28;20024;-60
2022/12/21 11:00:22;;;;;;;161.68;120.80;;;205.70;2252.80;;;;;;5090947;28;20019;-58
2022/12/21 11:02:50;;;;;;;168.10;113.25;;;230.40;2252.80;;;;;;5091002;28;20409;-57
2022/12/21 11:05:39;;;;;;;165.40;115.47;;;230.40;2252.80;;;;;;5091005;28;20055;-62
2022/12/21 11:08:13;;;;;;;201.73;138.73;;;230.40;2252.80;;;;;;5091077;28;20027;-60
2022/12/21 11:10:46;;;;;;;219.43;150.63;;;230.40;2252.80;;;;;;5090631;28;20024;-66
2022/12/21 11:13:13;;;;;;;185.82;127.40;;;230.50;2252.80;;;;;;5090724;28;20034;-67
2022/12/21 11:15:50;;;;;;;193.18;125.30;;;230.50;2252.80;;;;;;5090713;28;20039;-64
2022/12/21 11:18:35;;;;;;;177.98;120.07;;;230.60;2252.80;;;;;;5090896;28;20020;-70
2022/12/21 11:21:04;;;;;;;173.38;119.70;;;230.70;2252.80;;;;;;5090020;28;20028;-59
2022/12/21 11:23:31;;;;;;;189.27;128.48;;;230.80;2252.80;;;;;;5090296;28;20020;-60
2022/12/21 11:25:57;;;;;;;182.00;121.95;;;230.80;2252.80;;;;;;5090752;28;20103;-58
2022/12/21 11:28:26;;;;;;;198.45;132.85;;;230.90;2252.80;;;;;;5090376;28;20115;-63
2022/12/21 11:31:03;;;;;;;197.20;127.13;;;231.00;2252.80;;;;;;5090914;28;20024;-62
2022/12/21 11:33:30;;;;;;;173.48;119.38;;;231.10;2252.80;;;;;;5090488;28;20024;-63
2022/12/21 11:36:12;;;;;;;202.77;142.15;;;231.20;2252.80;;;;;;5090577;28;20047;-62
2022/12/21 11:38:39;;;;;;;170.68;118.22;;;231.30;2252.80;;;;;;5090159;28;20024;-58
2022/12/21 11:41:14;;;;;;;109.13;73.13;;;231.30;2252.80;;;;;;5090283;28;20048;-68
2022/12/21 11:43:58;;;;;;;72.38;46.38;;;256.00;2252.80;;;;;;5090279;28;20028;-63
2022/12/21 11:46:39;;;;;;;81.05;53.10;;;256.20;2252.80;;;;;;5090458;28;20454;-62
2022/12/21 11:49:31;;;;;;;89.55;58.90;;;256.40;2252.80;;;;;;5090890;28;20151;-62
2022/12/21 11:52:13;;;;;;;90.85;62.97;;;256.40;2252.80;;;;;;5007983;28;20033;-63
2022/12/21 11:54:57;;;;;;;128.43;80.72;;;256.40;2252.80;;;;;;5008083;28;20037;-70
2022/12/21 11:57:37;;;;;;;163.50;112.30;;;256.50;2252.80;;;;;;5006705;28;20495;-65
2022/12/21 12:00:10;;;;;;;181.57;112.60;;;256.60;2252.80;;;;;;5008139;28;20029;-59
2022/12/21 12:02:36;;;;;;;;;;;256.60;2252.80;;;;;;5008726;28;20169;-63
2022/12/21 12:05:04;;;;;;;123.75;83.32;;;256.80;2252.80;;;;;;5007768;28;20012;-64
2022/12/21 12:07:43;;;;;;;113.22;74.78;;;256.90;2252.80;;;;;;5007647;28;20029;-59
2022/12/21 12:10:37;;;;;;;147.05;103.55;;;256.90;2252.80;;;;;;5007103;28;20117;-58
2022/12/21 12:13:30;;;;;;;138.05;95.50;;;281.60;2278.40;;;;;;4988505;28;20069;-67
2022/12/21 12:16:16;;;;;;;116.53;85.15;;;281.70;2278.40;;;;;;4972543;28;20488;-61
2022/12/21 12:18:57;;;;;;;114.95;81.20;;;281.70;2278.40;;;;;;4993456;28;20030;-58
2022/12/21 12:21:43;;;;;;;115.40;79.95;;;281.80;2278.40;;;;;;4989509;28;20377;-64
2022/12/21 12:24:22;;;;;;;85.88;59.47;;;281.90;2278.40;;;;;;5006239;28;20041;-66
2022/12/21 12:26:58;;;;;;;122.03;78.47;;;281.90;2278.40;;;;;;5007591;28;20468;-62